Time;durP1;ratioP1;P1;durP2;ratioP2;P2;SDS_P1;SDS_P2;PMS_P1;PMS_P2;Temp;Humidity;BMP_temperature;BMP_pressure;BME280_temperature;BME280_humidity;BME280_pressure;Samples;Min_cycle;Max_cycle;Signal;HPM_P1;HPM_P2
2022/04/17 00:00:46;;;;;;;8.93;4.83;;;5.20;99.90;;;;;;4973961;28;20186;-72
2022/04/17 00:03:12;;;;;;;3.77;3.33;;;5.10;99.90;;;;;;4974728;28;20424;-71
2022/04/17 00:05:37;;;;;;;8.23;3.50;;;5.00;99.90;;;;;;4972096;28;20447;-73
2022/04/17 00:08:03;;;;;;;6.33;3.97;;;5.00;99.90;;;;;;4973942;28;20193;-72
2022/04/17 00:10:30;;;;;;;9.57;3.80;;;4.90;99.90;;;;;;4969750;28;20235;-69
2022/04/17 00:12:56;;;;;;;3.03;2.70;;;4.80;99.90;;;;;;4973852;28;20434;-72
2022/04/17 00:15:21;;;;;;;4.37;3.67;;;4.80;99.90;;;;;;4967276;28;20458;-71
2022/04/17 00:17:47;;;;;;;5.40;3.90;;;4.70;99.90;;;;;;4973935;28;20296;-72
2022/04/17 00:20:15;;;;;;;4.30;3.00;;;4.60;99.90;;;;;;4971746;28;20191;-71
2022/04/17 00:22:41;;;;;;;2.97;2.70;;;4.50;99.90;;;;;;4971667;28;20486;-71
2022/04/17 00:25:07;;;;;;;3.93;3.53;;;4.40;99.90;;;;;;4971722;28;20422;-71
2022/04/17 00:27:36;;;;;;;4.10;3.67;;;4.30;99.90;;;;;;4971427;28;20773;-71
2022/04/17 00:30:03;;;;;;;4.10;3.60;;;4.30;99.90;;;;;;4973443;28;20465;-72
2022/04/17 00:32:31;;;;;;;4.47;4.07;;;4.30;99.90;;;;;;4968137;28;20487;-71
2022/04/17 00:34:57;;;;;;;3.57;3.07;;;4.20;99.90;;;;;;4972412;28;20972;-71
2022/04/17 00:37:23;;;;;;;5.57;3.53;;;4.10;99.90;;;;;;4971297;28;20490;-71
2022/04/17 00:39:48;;;;;;;7.43;3.80;;;4.10;99.90;;;;;;4973550;28;20413;-72
2022/04/17 00:42:14;;;;;;;4.03;3.47;;;4.10;99.90;;;;;;4970491;28;20213;-71
2022/04/17 00:44:39;;;;;;;4.20;3.00;;;4.00;99.90;;;;;;4969926;28;20190;-72
2022/04/17 00:47:05;;;;;;;4.97;3.73;;;4.00;99.90;;;;;;4965495;28;20272;-72
2022/04/17 00:49:31;;;;;;;4.37;3.97;;;3.90;99.90;;;;;;4973120;28;20214;-72
2022/04/17 00:51:57;;;;;;;4.60;4.00;;;3.90;99.90;;;;;;4972045;28;20198;-72
2022/04/17 00:54:24;;;;;;;13.33;4.47;;;3.80;99.90;;;;;;4969983;28;20923;-71
2022/04/17 00:56:50;;;;;;;7.00;4.23;;;3.80;99.90;;;;;;4973307;28;20181;-72
2022/04/17 00:59:16;;;;;;;5.03;4.53;;;3.80;99.90;;;;;;4968705;28;20926;-71
2022/04/17 02:32:19;;;;;;;2.83;2.70;;;3.40;99.90;;;;;;5266295;23;20514;-69
2022/04/17 02:34:44;;;;;;;3.43;3.13;;;3.30;99.90;;;;;;4932348;29;20477;-69
2022/04/17 02:37:10;;;;;;;2.50;2.30;;;3.30;99.90;;;;;;4933163;29;20194;-69
2022/04/17 02:39:37;;;;;;;4.10;3.80;;;3.30;99.90;;;;;;4936921;29;20555;-70
2022/04/17 02:42:03;;;;;;;3.60;3.30;;;3.20;99.90;;;;;;4934680;29;20206;-70
2022/04/17 02:44:28;;;;;;;5.10;3.13;;;3.10;99.90;;;;;;4936848;29;20471;-69
2022/04/17 02:49:38;;;;;;;4.40;2.93;;;3.00;99.90;;;;;;4917755;29;20246;-69
2022/04/17 02:52:04;;;;;;;4.33;3.23;;;3.00;99.90;;;;;;4918056;29;20926;-69
2022/04/17 02:54:30;;;;;;;4.20;3.63;;;2.90;99.90;;;;;;4936705;29;20664;-69
2022/04/17 02:56:55;;;;;;;4.90;2.83;;;2.90;99.90;;;;;;4936776;29;20457;-70
2022/04/17 02:59:21;;;;;;;3.53;2.90;;;2.90;99.90;;;;;;4934106;29;20198;-70
2022/04/17 03:07:15;;;;;;;7.63;3.77;;;2.80;99.90;;;;;;4936595;29;20392;-69
2022/04/17 03:09:41;;;;;;;4.13;3.33;;;2.70;99.90;;;;;;4932690;29;20472;-70
2022/04/17 03:12:06;;;;;;;3.63;3.27;;;2.80;99.90;;;;;;4936203;29;21002;-69
2022/04/17 03:14:32;;;;;;;3.10;2.77;;;2.80;99.90;;;;;;4934674;29;20234;-70
2022/04/17 03:16:57;;;;;;;2.97;2.70;;;2.70;99.90;;;;;;4934542;29;20194;-70
2022/04/17 03:19:23;;;;;;;5.20;3.03;;;2.70;99.90;;;;;;4933367;29;20242;-70
2022/04/17 03:21:48;;;;;;;4.53;3.57;;;2.70;99.90;;;;;;4935170;29;20674;-71
2022/04/17 03:24:15;;;;;;;3.23;2.50;;;2.70;99.90;;;;;;4934267;29;20199;-70
2022/04/17 03:26:41;;;;;;;3.37;3.07;;;2.60;99.90;;;;;;4936438;29;20178;-70
2022/04/17 03:29:07;;;;;;;3.50;3.20;;;2.60;99.90;;;;;;4934769;29;20789;-70
2022/04/17 03:31:32;;;;;;;4.20;3.47;;;2.60;99.90;;;;;;4928917;29;20312;-70
2022/04/17 03:33:58;;;;;;;5.00;3.80;;;2.60;99.90;;;;;;4929885;29;20233;-70
2022/04/17 03:36:23;;;;;;;3.00;2.80;;;2.60;99.90;;;;;;4934000;29;20628;-70
2022/04/17 03:38:49;;;;;;;3.53;3.23;;;2.60;99.90;;;;;;4936112;29;20213;-70
2022/04/17 03:41:14;;;;;;;3.70;3.40;;;2.70;99.90;;;;;;4931567;29;20242;-69
2022/04/17 03:43:39;;;;;;;3.97;2.70;;;2.60;99.90;;;;;;4936082;29;20249;-69
2022/04/17 03:46:05;;;;;;;8.67;3.30;;;2.50;99.90;;;;;;4930817;29;20722;-69
2022/04/17 03:48:31;;;;;;;4.20;3.80;;;2.40;99.90;;;;;;4935749;29;20185;-70
2022/04/17 03:50:56;;;;;;;3.30;3.00;;;2.30;99.90;;;;;;4933731;29;20206;-70
2022/04/17 03:53:21;;;;;;;3.27;3.00;;;2.20;99.90;;;;;;4933787;29;20185;-69
2022/04/17 03:55:47;;;;;;;3.13;2.87;;;2.20;99.90;;;;;;4935855;29;20183;-70
2022/04/17 03:58:13;;;;;;;4.10;3.00;;;2.10;99.90;;;;;;4933551;29;20198;-69
2022/04/17 04:00:38;;;;;;;3.70;3.37;;;2.10;99.90;;;;;;4935201;29;20184;-70
2022/04/17 04:03:04;;;;;;;4.03;3.00;;;2.00;99.90;;;;;;4931250;29;20210;-69
2022/04/17 04:05:31;;;;;;;3.03;2.83;;;2.00;99.90;;;;;;4935377;29;20191;-70
2022/04/17 04:07:56;;;;;;;5.80;3.37;;;2.00;99.90;;;;;;4932386;29;20443;-70
2022/04/17 04:10:22;;;;;;;5.80;3.37;;;1.90;99.90;;;;;;4935271;29;20815;-70
2022/04/17 04:12:48;;;;;;;4.30;3.00;;;1.80;99.90;;;;;;4933405;29;20210;-70
2022/04/17 04:15:13;;;;;;;4.70;3.80;;;1.80;99.90;;;;;;4933204;29;20206;-70
2022/04/17 04:17:39;;;;;;;4.47;3.03;;;1.80;99.90;;;;;;4931414;29;20576;-70
2022/04/17 04:20:05;;;;;;;4.40;3.23;;;1.70;99.90;;;;;;4935131;29;20220;-70
2022/04/17 04:22:31;;;;;;;3.13;2.57;;;1.70;99.90;;;;;;4934708;29;20202;-70
2022/04/17 04:24:56;;;;;;;3.17;2.93;;;1.60;99.90;;;;;;4931157;29;20447;-70
2022/04/17 04:30:06;;;;;;;3.30;3.03;;;1.50;99.90;;;;;;4936062;29;20254;-70
2022/04/17 04:32:32;;;;;;;4.33;2.83;;;1.50;99.90;;;;;;4933542;29;20452;-71
2022/04/17 04:35:01;;;;;;;6.00;3.63;;;1.50;99.90;;;;;;4929882;29;20866;-69
2022/04/17 04:37:27;;;;;;;3.37;3.07;;;1.40;99.90;;;;;;4934955;29;20933;-69
2022/04/17 04:39:53;;;;;;;4.67;2.60;;;1.50;99.90;;;;;;4932768;29;20418;-70
2022/04/17 04:42:20;;;;;;;3.30;2.83;;;1.50;99.90;;;;;;4934457;29;20455;-69
2022/04/17 04:44:47;;;;;;;4.27;3.87;;;1.50;99.90;;;;;;4932563;29;20192;-69
2022/04/17 04:47:13;;;;;;;2.80;2.60;;;1.50;99.90;;;;;;4928401;29;20445;-69
2022/04/17 04:49:38;;;;;;;4.00;2.67;;;1.50;99.90;;;;;;4934876;29;20445;-69
2022/04/17 04:52:04;;;;;;;4.83;3.53;;;1.50;99.90;;;;;;4932571;29;20471;-70
2022/04/17 04:54:31;;;;;;;3.40;3.13;;;1.50;99.90;;;;;;4934766;29;20657;-70
2022/04/17 04:56:57;;;;;;;3.93;3.20;;;1.50;99.90;;;;;;4930768;29;20255;-69
2022/04/17 04:59:23;;;;;;;4.00;3.40;;;1.60;99.90;;;;;;4934744;29;20476;-70
2022/04/17 05:01:49;;;;;;;3.83;3.50;;;1.60;99.90;;;;;;4931204;29;20530;-70
2022/04/17 05:04:17;;;;;;;3.40;2.97;;;1.70;99.90;;;;;;4934705;29;20185;-70
2022/04/17 05:06:43;;;;;;;4.60;3.47;;;1.70;99.90;;;;;;4933042;29;20463;-70
2022/04/17 05:09:08;;;;;;;4.63;3.80;;;1.70;99.90;;;;;;4932525;29;20561;-70
2022/04/17 05:11:34;;;;;;;11.53;3.50;;;1.80;99.90;;;;;;4932242;29;20525;-69
2022/04/17 05:13:59;;;;;;;6.43;3.57;;;1.90;99.90;;;;;;4930840;29;20672;-69
2022/04/17 05:16:25;;;;;;;4.70;4.20;;;2.00;99.90;;;;;;4932529;29;20245;-70
2022/04/17 05:19:17;;;;;;;3.90;3.43;;;2.70;99.90;;;;;;4930932;29;20270;-70
2022/04/17 05:21:36;;;;;;;5.17;3.50;;;4.80;99.90;;;;;;4933954;29;20205;-70
2022/04/17 05:24:02;;;;;;;4.00;3.43;;;7.70;99.90;;;;;;4932452;29;20815;-70
2022/04/17 05:26:27;;;;;;;3.53;3.23;;;10.00;99.90;;;;;;4934650;29;20249;-70
2022/04/17 05:28:53;;;;;;;8.70;3.30;;;12.10;99.90;;;;;;4930184;29;20253;-70
2022/04/17 05:31:18;;;;;;;3.10;2.80;;;13.40;99.90;;;;;;4931724;29;20220;-71
2022/04/17 05:33:44;;;;;;;5.73;3.17;;;14.40;99.90;;;;;;4931319;29;20224;-71
2022/04/17 05:36:09;;;;;;;3.57;3.30;;;15.30;99.90;;;;;;4932077;29;20296;-71
2022/04/17 05:38:35;;;;;;;4.43;3.20;;;15.90;99.90;;;;;;4930881;29;20194;-70
2022/04/17 05:41:00;;;;;;;3.53;3.20;;;16.90;99.90;;;;;;4931878;29;20591;-71
2022/04/17 05:43:26;;;;;;;5.23;3.17;;;17.30;98.30;;;;;;4934221;29;20212;-71
2022/04/17 05:45:52;;;;;;;2.77;2.57;;;17.40;97.30;;;;;;4931713;29;20189;-71
2022/04/17 05:48:19;;;;;;;3.47;3.27;;;17.90;96.40;;;;;;4932782;29;20189;-71
2022/04/17 05:50:44;;;;;;;2.90;2.70;;;18.20;94.10;;;;;;4927905;29;20556;-71
2022/04/17 05:53:11;;;;;;;3.20;2.90;;;18.50;92.70;;;;;;4934045;29;20432;-70
2022/04/17 05:55:37;;;;;;;3.47;3.13;;;17.90;91.60;;;;;;4933058;29;20276;-70
2022/04/17 05:58:02;;;;;;;3.60;3.30;;;18.00;91.10;;;;;;4937873;29;20560;-71
2022/04/17 06:00:28;;;;;;;2.83;2.63;;;18.00;90.40;;;;;;4933274;29;20268;-69
2022/04/17 06:02:54;;;;;;;3.00;2.80;;;18.00;90.20;;;;;;4936149;29;20757;-72
2022/04/17 06:05:20;;;;;;;3.63;3.33;;;18.10;89.60;;;;;;4935540;29;20248;-71
2022/04/17 06:07:46;;;;;;;3.57;3.27;;;17.60;90.90;;;;;;4937732;29;20576;-71
2022/04/17 06:10:12;;;;;;;3.13;2.93;;;18.30;89.60;;;;;;4937303;29;20212;-72
2022/04/17 06:12:38;;;;;;;7.40;3.00;;;18.60;90.10;;;;;;4933483;29;20209;-72
2022/04/17 06:15:06;;;;;;;2.43;2.33;;;18.80;87.90;;;;;;4937603;29;20405;-71
2022/04/17 06:17:40;;;;;;;2.97;2.77;;;19.30;89.30;;;;;;4935254;29;20454;-71
2022/04/17 06:20:07;;;;;;;3.63;3.33;;;19.30;86.60;;;;;;4937678;29;20417;-71
2022/04/17 06:22:34;;;;;;;3.23;2.93;;;18.60;85.20;;;;;;4933052;29;20476;-72
2022/04/17 06:25:05;;;;;;;2.90;2.70;;;18.90;84.90;;;;;;4937439;29;20791;-71
2022/04/17 06:27:42;;;;;;;3.50;3.20;;;19.20;86.40;;;;;;4935135;29;20452;-71
2022/04/17 06:30:10;;;;;;;3.10;2.80;;;17.50;82.20;;;;;;4937321;29;20472;-71
2022/04/17 06:32:36;;;;;;;2.60;2.40;;;16.00;85.00;;;;;;4931790;29;20472;-71
2022/04/17 06:35:02;;;;;;;3.30;2.73;;;14.80;87.10;;;;;;4932045;29;20441;-71
2022/04/17 06:37:27;;;;;;;2.30;2.20;;;14.70;88.50;;;;;;4936050;29;20212;-70
2022/04/17 06:39:56;;;;;;;3.03;2.70;;;14.00;88.60;;;;;;4936938;29;20181;-70
2022/04/17 06:42:21;;;;;;;2.60;2.40;;;13.40;89.50;;;;;;4938847;29;20720;-70
2022/04/17 06:44:47;;;;;;;4.77;2.53;;;13.10;90.60;;;;;;4933225;29;20437;-70
2022/04/17 06:47:12;;;;;;;3.43;3.13;;;13.10;91.50;;;;;;4934829;29;20185;-71
2022/04/17 06:49:38;;;;;;;3.03;2.63;;;13.30;91.90;;;;;;4934686;29;20223;-71
2022/04/17 06:52:04;;;;;;;3.33;2.77;;;13.20;92.00;;;;;;4936680;29;20197;-70
2022/04/17 06:54:29;;;;;;;2.70;2.50;;;13.10;92.00;;;;;;4934695;29;20741;-71
2022/04/17 06:56:55;;;;;;;3.07;2.87;;;12.80;91.60;;;;;;4933554;29;20189;-71
2022/04/17 06:59:20;;;;;;;3.10;2.80;;;12.50;92.50;;;;;;4934437;29;20193;-70
2022/04/17 07:01:45;;;;;;;2.37;2.17;;;12.50;92.60;;;;;;4934402;29;20213;-70
2022/04/17 07:04:11;;;;;;;3.20;2.10;;;12.70;92.60;;;;;;4936547;29;20586;-70
2022/04/17 07:06:37;;;;;;;3.30;2.83;;;12.30;92.10;;;;;;4932335;29;20194;-71
2022/04/17 07:09:02;;;;;;;3.80;2.30;;;12.70;93.40;;;;;;4936634;29;20548;-70
2022/04/17 07:11:29;;;;;;;3.53;2.47;;;12.90;92.70;;;;;;4934083;29;20216;-71
2022/04/17 07:13:54;;;;;;;4.07;2.57;;;12.90;92.00;;;;;;4936561;29;20645;-70
2022/04/17 07:16:20;;;;;;;3.20;2.90;;;12.70;93.30;;;;;;4929956;29;20469;-70
2022/04/17 07:18:45;;;;;;;2.63;2.43;;;12.80;92.80;;;;;;4936412;29;20178;-70
2022/04/17 07:21:11;;;;;;;3.40;2.30;;;13.00;91.40;;;;;;4933871;29;20732;-70
2022/04/17 07:23:36;;;;;;;2.37;2.27;;;12.80;91.90;;;;;;4936487;29;20181;-71
2022/04/17 07:26:02;;;;;;;2.87;2.57;;;12.80;91.80;;;;;;4934669;29;20185;-70
2022/04/17 07:28:28;;;;;;;2.70;2.50;;;13.00;92.90;;;;;;4933831;29;20227;-71
2022/04/17 07:30:53;;;;;;;2.83;2.63;;;13.00;92.10;;;;;;4935675;29;20595;-70
2022/04/17 07:33:19;;;;;;;2.83;2.63;;;13.60;92.60;;;;;;4932169;29;20252;-70
2022/04/17 07:35:44;;;;;;;2.80;2.40;;;13.80;90.70;;;;;;4934362;29;20186;-71
2022/04/17 07:38:10;;;;;;;2.87;2.67;;;13.50;91.10;;;;;;4932119;29;20213;-70
2022/04/17 07:40:36;;;;;;;2.33;2.23;;;13.30;90.90;;;;;;4935701;29;20718;-69
2022/04/17 07:43:04;;;;;;;3.00;2.30;;;13.50;93.20;;;;;;4934125;29;20653;-70
2022/04/17 07:45:30;;;;;;;2.53;1.83;;;13.60;91.40;;;;;;4935842;29;20421;-71
2022/04/17 07:47:56;;;;;;;4.73;2.70;;;14.40;92.80;;;;;;4933057;29;20497;-71
2022/04/17 07:50:24;;;;;;;2.47;2.23;;;14.30;90.00;;;;;;4936762;29;20465;-70
2022/04/17 07:52:51;;;;;;;2.27;2.07;;;14.10;91.00;;;;;;4934669;29;20185;-70
2022/04/17 07:55:17;;;;;;;2.00;1.80;;;14.30;92.10;;;;;;4935866;29;20417;-71
2022/04/17 08:00:27;;;;;;;3.47;2.17;;;14.40;90.30;;;;;;4932492;29;20449;-71
2022/04/17 08:02:55;;;;;;;2.63;2.20;;;14.40;90.10;;;;;;4933736;29;20494;-70
2022/04/17 08:05:24;;;;;;;2.30;2.10;;;14.40;90.30;;;;;;4933403;29;20515;-71
2022/04/17 08:07:51;;;;;;;3.63;2.33;;;14.50;88.70;;;;;;4935693;29;20418;-70
2022/04/17 08:10:17;;;;;;;1.73;1.63;;;14.90;89.20;;;;;;4931148;29;20908;-71
2022/04/17 08:12:43;;;;;;;4.43;2.30;;;15.00;88.20;;;;;;4931229;29;20465;-70
2022/04/17 08:15:09;;;;;;;2.03;1.93;;;15.40;87.80;;;;;;4933294;29;20181;-71
2022/04/17 08:17:35;;;;;;;3.17;2.33;;;15.40;88.50;;;;;;4932536;29;20784;-71
2022/04/17 08:20:00;;;;;;;2.73;2.10;;;15.60;87.00;;;;;;4932934;29;20190;-71
2022/04/17 08:22:26;;;;;;;3.53;2.20;;;15.30;87.00;;;;;;4932780;29;20264;-71
2022/04/17 08:24:51;;;;;;;2.27;2.10;;;16.00;87.40;;;;;;4935210;29;20184;-71
2022/04/17 08:27:17;;;;;;;2.40;2.20;;;16.30;88.90;;;;;;4932980;29;20658;-71
2022/04/17 08:29:42;;;;;;;2.73;2.53;;;16.50;83.60;;;;;;4935088;29;20229;-71
2022/04/17 08:32:08;;;;;;;2.33;2.13;;;16.10;81.90;;;;;;4926089;29;20217;-70
2022/04/17 08:34:34;;;;;;;1.97;1.83;;;15.90;85.00;;;;;;4935223;29;20173;-71
2022/04/17 08:37:00;;;;;;;2.63;1.70;;;16.10;84.40;;;;;;4933075;29;20185;-71
2022/04/17 08:39:26;;;;;;;4.27;2.40;;;16.20;85.70;;;;;;4934754;29;20206;-71
2022/04/17 08:41:54;;;;;;;2.07;1.87;;;16.40;83.50;;;;;;4932800;29;20460;-70
2022/04/17 08:44:21;;;;;;;2.50;2.30;;;16.20;83.60;;;;;;4932625;29;20452;-71
2022/04/17 08:46:47;;;;;;;2.00;1.90;;;16.40;84.00;;;;;;4935653;29;20544;-71
2022/04/17 08:49:13;;;;;;;4.00;2.20;;;16.60;84.70;;;;;;4936173;29;20544;-72
2022/04/17 08:51:39;;;;;;;2.53;2.00;;;17.00;84.10;;;;;;4935173;29;20710;-71
2022/04/17 08:54:06;;;;;;;1.93;1.83;;;16.80;81.60;;;;;;4930735;29;20516;-70
2022/04/17 08:56:32;;;;;;;1.83;1.73;;;16.70;81.60;;;;;;4934677;29;20176;-71
2022/04/17 08:58:58;;;;;;;2.93;2.60;;;17.40;83.90;;;;;;4932676;29;20445;-71
2022/04/17 09:01:24;;;;;;;2.20;2.00;;;17.20;79.30;;;;;;4932157;29;20213;-71
2022/04/17 09:03:50;;;;;;;2.40;2.13;;;16.60;80.60;;;;;;4932352;29;20865;-70
2022/04/17 09:06:20;;;;;;;4.73;2.47;;;16.90;81.60;;;;;;4934515;29;20184;-71
2022/04/17 09:09:04;;;;;;;1.97;1.87;;;17.30;82.00;;;;;;4932207;29;20198;-71
2022/04/17 09:11:30;;;;;;;4.33;2.10;;;17.20;79.80;;;;;;4927779;29;20472;-71
2022/04/17 09:13:58;;;;;;;3.40;1.90;;;17.50;80.10;;;;;;4932632;29;20445;-70
2022/04/17 09:16:33;;;;;;;2.90;1.93;;;17.30;80.10;;;;;;4932251;29;20409;-71
2022/04/17 09:18:59;;;;;;;2.30;2.10;;;17.90;81.10;;;;;;4915312;29;20418;-70
2022/04/17 09:21:32;;;;;;;2.27;2.17;;;17.60;78.50;;;;;;4933634;29;20863;-71
2022/04/17 09:24:21;;;;;;;1.77;1.67;;;17.50;77.30;;;;;;4934235;29;20181;-71
2022/04/17 09:26:53;;;;;;;1.93;1.73;;;18.00;78.60;;;;;;4932249;29;20448;-71
2022/04/17 09:29:20;;;;;;;1.63;1.43;;;17.70;76.30;;;;;;4933558;29;20461;-71
2022/04/17 09:31:47;;;;;;;2.83;2.10;;;18.30;78.30;;;;;;4928852;29;20512;-71
2022/04/17 09:34:13;;;;;;;2.03;1.80;;;18.40;78.60;;;;;;4930986;29;20420;-71
2022/04/17 09:36:39;;;;;;;4.00;1.70;;;18.90;75.80;;;;;;4930166;29;20480;-71
2022/04/17 09:39:15;;;;;;;1.80;1.70;;;19.10;75.90;;;;;;4934311;29;20421;-70
2022/04/17 09:41:58;;;;;;;1.40;1.30;;;18.80;79.50;;;;;;4931935;29;20244;-71
2022/04/17 09:44:46;;;;;;;4.30;2.27;;;18.90;74.70;;;;;;4932840;29;20420;-71
2022/04/17 09:47:20;;;;;;;1.60;1.40;;;19.20;76.00;;;;;;4927127;29;20464;-71
2022/04/17 09:49:57;;;;;;;1.50;1.40;;;18.90;72.80;;;;;;4915100;29;20831;-71
2022/04/17 09:52:25;;;;;;;1.93;1.33;;;19.10;71.80;;;;;;4923016;29;20456;-71
2022/04/17 09:54:52;;;;;;;2.03;1.83;;;19.00;72.60;;;;;;4934102;29;20500;-71
2022/04/17 09:57:38;;;;;;;1.30;1.20;;;18.60;72.10;;;;;;4932171;29;20948;-71
2022/04/17 10:00:12;;;;;;;1.93;1.53;;;18.20;72.20;;;;;;4931600;29;20517;-71
2022/04/17 10:02:39;;;;;;;3.17;1.70;;;18.30;73.20;;;;;;4929559;29;20988;-71
2022/04/17 10:05:07;;;;;;;1.43;1.33;;;18.40;71.30;;;;;;4932671;29;20413;-72
2022/04/17 10:07:34;;;;;;;1.63;0.90;;;18.60;74.40;;;;;;4931918;29;20470;-71
2022/04/17 10:09:59;;;;;;;1.33;1.23;;;19.30;70.80;;;;;;4931719;29;20508;-71
2022/04/17 10:12:25;;;;;;;1.70;1.60;;;19.70;70.70;;;;;;4929811;29;20457;-71
2022/04/17 10:14:52;;;;;;;1.27;1.17;;;19.90;70.70;;;;;;4931789;29;20189;-72
2022/04/17 10:17:22;;;;;;;1.50;1.40;;;20.00;65.90;;;;;;4932007;29;20193;-71
2022/04/17 10:19:49;;;;;;;1.27;1.17;;;20.00;65.00;;;;;;4929791;29;20953;-71
2022/04/17 10:22:18;;;;;;;1.17;0.97;;;20.50;64.60;;;;;;4933525;29;20993;-72
2022/04/17 10:24:51;;;;;;;1.20;0.90;;;20.20;64.00;;;;;;4931634;29;20436;-71
2022/04/17 10:27:20;;;;;;;0.80;0.80;;;20.10;63.40;;;;;;4933765;29;20918;-72
2022/04/17 10:30:03;;;;;;;4.27;1.23;;;20.00;61.30;;;;;;4931600;29;20479;-72
2022/04/17 10:32:47;;;;;;;2.13;0.90;;;19.70;60.40;;;;;;4922791;29;21290;-71
2022/04/17 10:35:50;;;;;;;2.70;1.33;;;19.50;61.40;;;;;;4931500;29;20951;-71
2022/04/17 10:38:30;;;;;;;3.80;1.40;;;18.80;62.40;;;;;;4933609;29;20837;-72
2022/04/17 10:41:07;;;;;;;1.80;1.30;;;19.10;63.00;;;;;;4929516;29;20461;-71
2022/04/17 10:43:54;;;;;;;1.87;1.10;;;18.70;61.10;;;;;;4917954;29;20429;-71
2022/04/17 10:46:21;;;;;;;1.13;0.93;;;18.90;62.50;;;;;;4923236;29;20444;-71
2022/04/17 10:48:50;;;;;;;1.97;1.03;;;19.10;60.50;;;;;;4936897;29;20432;-71
2022/04/17 10:51:19;;;;;;;2.37;1.30;;;18.80;61.10;;;;;;4935523;29;20461;-72
2022/04/17 10:54:06;;;;;;;1.17;1.03;;;19.10;62.00;;;;;;4937934;29;20437;-71
2022/04/17 10:56:37;;;;;;;1.47;1.20;;;18.90;61.10;;;;;;4935350;29;20806;-72
2022/04/17 10:59:14;;;;;;;1.00;0.93;;;18.30;61.30;;;;;;4936780;29;20421;-71
2022/04/17 11:01:45;;;;;;;1.17;1.07;;;18.40;62.50;;;;;;4933172;29;20824;-71
2022/04/17 11:04:18;;;;;;;1.50;1.37;;;18.70;60.60;;;;;;4934550;29;20447;-71
2022/04/17 11:06:44;;;;;;;3.43;1.10;;;17.80;61.50;;;;;;4934700;29;20445;-71
2022/04/17 11:09:10;;;;;;;1.40;1.30;;;17.30;63.40;;;;;;4936449;29;20471;-71
2022/04/17 11:11:41;;;;;;;7.40;1.20;;;17.00;62.90;;;;;;4932618;29;20555;-72
2022/04/17 11:14:19;;;;;;;2.67;1.30;;;17.20;64.30;;;;;;4935828;29;20416;-71
2022/04/17 11:17:08;;;;;;;3.10;1.30;;;17.60;65.10;;;;;;4934497;29;20444;-71
2022/04/17 11:19:36;;;;;;;3.00;1.40;;;17.60;63.60;;;;;;4934513;29;20431;-71
2022/04/17 11:22:07;;;;;;;0.97;0.97;;;18.10;66.00;;;;;;4936130;29;20441;-70
2022/04/17 11:24:54;;;;;;;2.10;1.67;;;18.40;65.60;;;;;;4931704;29;20873;-71
2022/04/17 11:27:31;;;;;;;1.30;1.20;;;18.10;64.80;;;;;;4936153;29;20517;-71
2022/04/17 11:30:01;;;;;;;2.33;1.00;;;18.10;65.90;;;;;;4934129;29;20496;-71
2022/04/17 11:32:29;;;;;;;1.80;1.70;;;17.60;62.20;;;;;;4933435;29;20469;-71
2022/04/17 11:35:02;;;;;;;1.30;1.20;;;17.80;64.00;;;;;;4932066;29;20434;-71
2022/04/17 11:37:29;;;;;;;2.13;1.50;;;17.90;64.00;;;;;;4935985;29;20417;-71
2022/04/17 11:40:09;;;;;;;1.13;1.00;;;17.60;62.60;;;;;;4933922;29;20476;-71
2022/04/17 11:42:50;;;;;;;1.90;1.13;;;17.20;63.20;;;;;;4935790;29;20440;-71
2022/04/17 11:45:27;;;;;;;6.93;1.10;;;17.20;64.60;;;;;;4932882;29;20440;-71
2022/04/17 11:47:54;;;;;;;1.53;1.23;;;17.20;64.90;;;;;;4929009;29;20516;-72
2022/04/17 11:50:26;;;;;;;1.30;1.20;;;17.50;64.40;;;;;;4933447;29;20631;-71
2022/04/17 11:52:57;;;;;;;1.20;1.10;;;17.20;63.70;;;;;;4935647;29;20468;-71
2022/04/17 11:55:44;;;;;;;1.30;1.20;;;17.10;65.20;;;;;;4933690;29;20437;-71
2022/04/17 11:58:11;;;;;;;1.90;1.00;;;17.10;64.40;;;;;;4934024;29;20484;-71
2022/04/17 12:00:37;;;;;;;1.63;1.20;;;17.40;67.90;;;;;;4934070;29;20778;-70
2022/04/17 12:03:07;;;;;;;2.93;1.30;;;17.20;64.90;;;;;;4931756;29;20425;-71
2022/04/17 12:05:36;;;;;;;2.03;0.80;;;17.10;63.70;;;;;;4935440;29;20422;-71
2022/04/17 12:08:09;;;;;;;2.70;1.20;;;17.00;64.40;;;;;;4931956;29;20514;-71
2022/04/17 12:10:35;;;;;;;1.37;1.00;;;17.10;66.20;;;;;;4933371;29;20492;-71
2022/04/17 12:13:18;;;;;;;0.87;0.87;;;17.20;66.30;;;;;;4933038;29;20461;-71
2022/04/17 12:15:44;;;;;;;1.17;1.07;;;17.20;64.40;;;;;;4935415;29;20439;-71
2022/04/17 12:18:10;;;;;;;1.73;1.20;;;17.20;63.20;;;;;;4931120;29;20553;-71
2022/04/17 12:20:39;;;;;;;0.93;0.93;;;17.10;64.60;;;;;;4934918;29;20893;-71
2022/04/17 12:23:05;;;;;;;2.00;1.17;;;17.00;66.30;;;;;;4933318;29;20189;-71
2022/04/17 12:25:31;;;;;;;5.60;1.07;;;17.00;64.70;;;;;;4934911;29;20918;-70
2022/04/17 12:27:56;;;;;;;1.20;1.03;;;17.00;63.00;;;;;;4933267;29;20440;-71
2022/04/17 12:30:26;;;;;;;2.10;1.00;;;17.00;64.00;;;;;;4932798;29;20577;-71
2022/04/17 12:32:59;;;;;;;2.13;1.23;;;17.20;64.60;;;;;;4931013;29;20218;-71
2022/04/17 12:35:27;;;;;;;2.23;1.30;;;17.30;64.30;;;;;;4934902;29;20449;-71
2022/04/17 12:38:06;;;;;;;1.00;0.90;;;17.00;63.50;;;;;;4935187;29;20467;-71
2022/04/17 12:40:38;;;;;;;1.63;1.00;;;16.90;63.40;;;;;;4925774;29;20452;-71
2022/04/17 12:43:18;;;;;;;3.60;1.00;;;16.90;65.30;;;;;;4934978;29;20478;-71
2022/04/17 12:46:00;;;;;;;1.00;0.83;;;16.50;62.20;;;;;;4932245;29;20436;-71
2022/04/17 12:48:36;;;;;;;0.70;0.70;;;16.60;65.00;;;;;;4932702;29;20849;-71
2022/04/17 12:51:06;;;;;;;0.70;0.70;;;16.60;62.60;;;;;;4928843;29;20520;-71
2022/04/17 12:53:37;;;;;;;0.87;0.80;;;16.60;62.10;;;;;;4934728;29;20421;-71
2022/04/17 12:56:04;;;;;;;1.07;0.90;;;16.70;62.60;;;;;;4932606;29;20520;-71
2022/04/17 12:58:55;;;;;;;1.20;1.20;;;16.40;62.50;;;;;;4934751;29;20905;-71
2022/04/17 13:01:21;;;;;;;1.93;1.30;;;16.20;63.30;;;;;;4930419;29;20488;-71
2022/04/17 13:03:48;;;;;;;3.00;1.00;;;16.20;64.10;;;;;;4933644;29;20954;-71
2022/04/17 13:06:21;;;;;;;1.57;1.00;;;15.90;63.00;;;;;;4932577;29;20444;-70
2022/04/17 13:09:06;;;;;;;1.13;0.90;;;15.80;63.00;;;;;;4934739;29;20942;-71
2022/04/17 13:11:34;;;;;;;1.00;0.90;;;15.80;64.20;;;;;;4928348;29;20527;-70
2022/04/17 13:14:03;;;;;;;0.90;0.90;;;15.90;64.00;;;;;;4934544;29;20508;-71
2022/04/17 13:16:33;;;;;;;1.50;1.40;;;15.90;64.10;;;;;;4929090;29;20449;-71
2022/04/17 13:18:59;;;;;;;3.33;0.80;;;16.00;62.90;;;;;;4933967;29;20421;-70
2022/04/17 13:21:26;;;;;;;1.20;0.90;;;16.10;64.10;;;;;;4931778;29;20494;-71
2022/04/17 13:23:52;;;;;;;1.20;1.10;;;16.20;62.00;;;;;;4932335;29;20521;-71
2022/04/17 13:26:19;;;;;;;1.20;0.83;;;16.10;60.20;;;;;;4934022;29;20960;-71
2022/04/17 13:28:45;;;;;;;1.90;1.00;;;15.90;62.20;;;;;;4932250;29;20448;-71
2022/04/17 13:31:11;;;;;;;2.83;0.87;;;15.90;62.10;;;;;;4933742;29;20632;-71
2022/04/17 13:33:36;;;;;;;1.73;0.70;;;15.80;60.90;;;;;;4930109;29;20536;-70
2022/04/17 13:36:02;;;;;;;1.13;0.90;;;15.70;59.20;;;;;;4934315;29;20351;-71
2022/04/17 13:38:29;;;;;;;2.20;1.57;;;15.70;60.00;;;;;;4931909;29;20517;-71
2022/04/17 13:40:55;;;;;;;1.07;1.00;;;15.90;59.50;;;;;;4934104;29;20173;-70
2022/04/17 13:43:24;;;;;;;3.10;0.97;;;15.90;60.00;;;;;;4932130;29;21016;-71
2022/04/17 13:45:49;;;;;;;1.03;0.93;;;16.00;59.80;;;;;;4932543;29;20193;-71
2022/04/17 13:48:15;;;;;;;1.23;0.80;;;16.00;59.60;;;;;;4930285;29;20456;-71
2022/04/17 13:50:41;;;;;;;1.60;1.00;;;16.00;60.80;;;;;;4933690;29;20245;-70
2022/04/17 13:53:07;;;;;;;1.67;1.10;;;15.80;58.60;;;;;;4934161;29;20530;-70
2022/04/17 13:55:35;;;;;;;0.80;0.80;;;15.70;58.90;;;;;;4930030;29;20268;-71
2022/04/17 13:58:00;;;;;;;1.00;0.90;;;15.70;59.60;;;;;;4934432;29;20782;-70
2022/04/17 14:00:26;;;;;;;0.97;0.97;;;15.60;59.30;;;;;;4931906;29;20441;-70
2022/04/17 14:02:51;;;;;;;0.93;0.90;;;15.70;60.60;;;;;;4931982;29;20224;-71
2022/04/17 14:05:17;;;;;;;3.23;1.20;;;15.60;59.40;;;;;;4930748;29;20190;-71
2022/04/17 14:07:43;;;;;;;2.00;1.00;;;15.70;59.40;;;;;;4933365;29;20259;-69
2022/04/17 14:10:09;;;;;;;2.20;0.93;;;15.70;58.40;;;;;;4930100;29;20307;-71
2022/04/17 14:12:39;;;;;;;4.23;1.97;;;15.80;59.00;;;;;;4929199;29;20267;-70
2022/04/17 14:15:05;;;;;;;1.10;0.90;;;15.80;58.60;;;;;;4932014;29;20414;-71
2022/04/17 14:17:31;;;;;;;1.63;1.47;;;15.70;59.90;;;;;;4931629;29;20444;-71
2022/04/17 14:19:57;;;;;;;1.13;0.90;;;15.80;59.40;;;;;;4936654;29;20425;-70
2022/04/17 14:22:24;;;;;;;1.53;1.43;;;15.80;59.20;;;;;;4935194;29;20201;-71
2022/04/17 14:24:53;;;;;;;1.17;1.17;;;15.80;60.80;;;;;;4937597;29;20416;-71
2022/04/17 14:27:19;;;;;;;1.67;1.10;;;15.80;61.30;;;;;;4934132;29;20452;-71
2022/04/17 14:29:45;;;;;;;1.33;1.10;;;15.80;62.50;;;;;;4937401;29;20491;-71
2022/04/17 14:32:11;;;;;;;1.70;1.10;;;15.80;63.40;;;;;;4931185;29;20982;-71
2022/04/17 14:34:38;;;;;;;2.03;1.20;;;15.80;61.60;;;;;;4937227;29;20412;-70
2022/04/17 14:37:04;;;;;;;1.43;1.20;;;15.80;61.40;;;;;;4935363;29;20181;-71
2022/04/17 14:39:30;;;;;;;2.00;1.40;;;15.80;65.00;;;;;;4935302;29;20449;-71